الصفحة الرئيسية
METAR-TAF:

METAR-TAF

مطار :

Tucumcari Municipal Airport

Tucumcari, نيومكسيكو, الولايات المتحدة

دائرة عرض: 35-10-58N, خط طول: 103-36-11W, ارتفاع: 1239 متر

مراقبة الطقس الحالي

تاريخ ووقت الإصدار 37 دقيقة قبل الساعة 03:53UTC
ريح 8 عقدة من الشرق/الشمال الشرقي
درجة الحرارة 20°درجة مئوية
الرطوبة 68%
ضغط 1016 hPa
الرؤية: 16.1 كم
سماء صافية

METAR: KTCC 240353Z AUTO 06008KT 10SM CLR 20/14 A3001 RMK AO2 LTG DSNT SE SLP102 T02000144

زمن: 22:30 (04:30 UTC)

توقعات

تاريخ ووقت الإصدار 1ساعة و 32 دقيقة قبل الساعة 02:58UTC
التوقعات صالحة من24 الساعة 03 UTC إلى 24 الساعة 24 UTC
ريح 9 عقدة من الشرق/الجنوب الشرقي تتزايد حتى 15 عقدة
الرؤية: 10 كم
ملبد بالغيوم على ارتفاع 25000 قدم
من 24 الساعة 0600 UTC
ريح 6 عقدةمن اتجاهات متغيرة
الرؤية: 10 كم
غيوم متفرقة على ارتفاع 25000 قدم
من 24 الساعة 1500 UTC
ريح 10 عقدة من الغرب/الجنوب الغربي
الرؤية: 10 كم
غيوم قليلة على ارتفاع 12000 قدم

TAF: KTCC 240258Z 2403/2424 12009G15KT P6SM OVC250 FM240600 VRB06KT P6SM SCT250 FM241500 24010KT P6SM FEW120

أرصاد الطقس والتوقعات من أكثر من 4000 مطار (تقارير الطقس للمطار METAR والتنبؤ بالطقس بالمطارTAF).

المحطات المتاحة هي النقط الصفراء والحمراء على الخريطة.

حرك المؤشر فوق النقطة لمعرفة اسم المحطة.

ثم انقر لمعرفة أرصاد وتوقعات الطقس.

لتغيير الخارطة: اضغط على الأزرار الخضراء مع رمز الصليب الأسود للتكبير. على الزر الأخضر مع شرطة للتصغير، أو على الأسهم الخضراء للخرائط المجاورة.


METAR-TAF: